Terminal Aerodrome Forecast
Issued by NWS

Home | Current Version | Previous Version | Text Only | Print | Product List | Glossary On
Versions: 1 2 3 4 5 6 7 8 9 10 11 12 13 14 15 16 17 18 19
000
FTPA31 PHFO 292328
TAFHTO
TAF
PHTO 292328Z 3000/3024 10010KT P6SM VCSH SCT030 BKN045
     FM300600 22006KT P6SM VCSH SCT020 BKN035
     FM302000 08010KT P6SM SCT030 BKN045=

USA.gov is the U.S. government's official web portal to all federal, state and local government web resources and services.